sensor_id;sensor_type;location;lat;lon;timestamp;P1;durP1;ratioP1;P2;durP2;ratioP2
29688;SDS011;16600;47.444;8.334;2023-06-10T00:01:39;4.32;;;3.92;;
29688;SDS011;16600;47.444;8.334;2023-06-10T00:04:05;4.95;;;3.63;;
29688;SDS011;16600;47.444;8.334;2023-06-10T00:06:31;5.85;;;4.07;;
29688;SDS011;16600;47.444;8.334;2023-06-10T00:09:03;6.25;;;4.43;;
29688;SDS011;16600;47.444;8.334;2023-06-10T00:11:30;5.05;;;4.18;;
29688;SDS011;16600;47.444;8.334;2023-06-10T00:13:55;5.03;;;4.55;;
29688;SDS011;16600;47.444;8.334;2023-06-10T00:16:21;7.72;;;4.55;;
29688;SDS011;16600;47.444;8.334;2023-06-10T00:18:47;6.97;;;5.13;;
29688;SDS011;16600;47.444;8.334;2023-06-10T00:21:14;4.85;;;4.35;;
29688;SDS011;16600;47.444;8.334;2023-06-10T00:23:41;9.10;;;5.13;;
29688;SDS011;16600;47.444;8.334;2023-06-10T00:26:10;5.75;;;4.53;;
29688;SDS011;16600;47.444;8.334;2023-06-10T00:28:36;4.22;;;3.83;;
29688;SDS011;16600;47.444;8.334;2023-06-10T00:31:02;5.60;;;4.28;;
29688;SDS011;16600;47.444;8.334;2023-06-10T00:33:31;4.40;;;4.00;;
29688;SDS011;16600;47.444;8.334;2023-06-10T00:35:57;5.28;;;4.35;;
29688;SDS011;16600;47.444;8.334;2023-06-10T00:38:23;4.95;;;3.90;;
29688;SDS011;16600;47.444;8.334;2023-06-10T00:43:15;6.65;;;4.40;;
29688;SDS011;16600;47.444;8.334;2023-06-10T00:45:44;8.02;;;4.78;;
29688;SDS011;16600;47.444;8.334;2023-06-10T00:48:10;4.82;;;4.38;;
29688;SDS011;16600;47.444;8.334;2023-06-10T00:53:04;7.47;;;4.68;;
29688;SDS011;16600;47.444;8.334;2023-06-10T00:55:31;6.60;;;4.40;;
29688;SDS011;16600;47.444;8.334;2023-06-10T00:57:58;4.45;;;4.10;;
29688;SDS011;16600;47.444;8.334;2023-06-10T01:00:27;6.13;;;4.97;;
29688;SDS011;16600;47.444;8.334;2023-06-10T01:02:53;5.45;;;4.95;;
29688;SDS011;16600;47.444;8.334;2023-06-10T01:05:20;7.38;;;4.85;;
29688;SDS011;16600;47.444;8.334;2023-06-10T01:07:59;8.38;;;4.80;;
29688;SDS011;16600;47.444;8.334;2023-06-10T01:10:33;5.07;;;4.55;;
29688;SDS011;16600;47.444;8.334;2023-06-10T01:13:00;8.43;;;4.82;;
29688;SDS011;16600;47.444;8.334;2023-06-10T01:15:30;7.07;;;4.95;;
29688;SDS011;16600;47.444;8.334;2023-06-10T01:18:03;7.47;;;4.55;;
29688;SDS011;16600;47.444;8.334;2023-06-10T01:20:31;5.32;;;4.78;;
29688;SDS011;16600;47.444;8.334;2023-06-10T01:23:01;5.50;;;4.97;;
29688;SDS011;16600;47.444;8.334;2023-06-10T01:25:28;6.45;;;5.05;;
29688;SDS011;16600;47.444;8.334;2023-06-10T01:27:58;5.57;;;5.07;;
29688;SDS011;16600;47.444;8.334;2023-06-10T01:30:32;7.82;;;5.63;;
29688;SDS011;16600;47.444;8.334;2023-06-10T01:33:03;6.13;;;5.53;;
29688;SDS011;16600;47.444;8.334;2023-06-10T01:35:33;7.43;;;5.53;;
29688;SDS011;16600;47.444;8.334;2023-06-10T01:38:01;7.25;;;5.45;;
29688;SDS011;16600;47.444;8.334;2023-06-10T01:40:28;5.47;;;4.72;;
29688;SDS011;16600;47.444;8.334;2023-06-10T01:42:55;9.25;;;5.45;;
29688;SDS011;16600;47.444;8.334;2023-06-10T01:45:21;6.18;;;5.38;;
29688;SDS011;16600;47.444;8.334;2023-06-10T01:47:48;8.98;;;5.63;;
29688;SDS011;16600;47.444;8.334;2023-06-10T01:50:17;7.45;;;4.88;;
29688;SDS011;16600;47.444;8.334;2023-06-10T01:52:43;6.47;;;5.65;;
29688;SDS011;16600;47.444;8.334;2023-06-10T01:55:09;5.38;;;4.95;;
29688;SDS011;16600;47.444;8.334;2023-06-10T01:57:35;5.28;;;4.78;;
29688;SDS011;16600;47.444;8.334;2023-06-10T02:00:02;7.40;;;5.15;;
29688;SDS011;16600;47.444;8.334;2023-06-10T02:02:40;6.18;;;4.88;;
29688;SDS011;16600;47.444;8.334;2023-06-10T02:05:09;6.97;;;5.53;;
29688;SDS011;16600;47.444;8.334;2023-06-10T02:07:35;10.40;;;5.43;;
29688;SDS011;16600;47.444;8.334;2023-06-10T02:10:01;6.70;;;5.32;;
29688;SDS011;16600;47.444;8.334;2023-06-10T02:12:28;8.30;;;5.32;;
29688;SDS011;16600;47.444;8.334;2023-06-10T02:14:54;7.57;;;6.05;;
29688;SDS011;16600;47.444;8.334;2023-06-10T02:17:20;7.00;;;5.78;;
29688;SDS011;16600;47.444;8.334;2023-06-10T02:19:46;5.70;;;5.25;;
29688;SDS011;16600;47.444;8.334;2023-06-10T02:22:21;7.82;;;5.03;;
29688;SDS011;16600;47.444;8.334;2023-06-10T02:24:48;11.65;;;5.85;;
29688;SDS011;16600;47.444;8.334;2023-06-10T02:27:15;6.13;;;5.53;;
29688;SDS011;16600;47.444;8.334;2023-06-10T02:29:41;8.55;;;5.85;;
29688;SDS011;16600;47.444;8.334;2023-06-10T02:32:10;6.78;;;5.32;;
29688;SDS011;16600;47.444;8.334;2023-06-10T02:34:43;5.78;;;5.10;;
29688;SDS011;16600;47.444;8.334;2023-06-10T02:37:10;6.30;;;5.75;;
29688;SDS011;16600;47.444;8.334;2023-06-10T02:39:36;6.10;;;5.50;;
29688;SDS011;16600;47.444;8.334;2023-06-10T02:42:06;7.40;;;5.78;;
29688;SDS011;16600;47.444;8.334;2023-06-10T02:44:33;7.47;;;6.07;;
29688;SDS011;16600;47.444;8.334;2023-06-10T02:46:59;7.72;;;5.82;;
29688;SDS011;16600;47.444;8.334;2023-06-10T02:49:26;16.55;;;5.60;;
29688;SDS011;16600;47.444;8.334;2023-06-10T02:51:54;6.97;;;6.35;;
29688;SDS011;16600;47.444;8.334;2023-06-10T02:54:23;7.43;;;5.97;;
29688;SDS011;16600;47.444;8.334;2023-06-10T02:56:54;7.05;;;5.97;;
29688;SDS011;16600;47.444;8.334;2023-06-10T02:59:24;7.75;;;5.15;;
29688;SDS011;16600;47.444;8.334;2023-06-10T03:01:53;6.43;;;5.82;;
29688;SDS011;16600;47.444;8.334;2023-06-10T03:04:20;6.95;;;6.28;;
29688;SDS011;16600;47.444;8.334;2023-06-10T03:06:54;11.60;;;5.97;;
29688;SDS011;16600;47.444;8.334;2023-06-10T03:09:29;8.40;;;5.85;;
29688;SDS011;16600;47.444;8.334;2023-06-10T03:11:57;11.23;;;6.07;;
29688;SDS011;16600;47.444;8.334;2023-06-10T03:14:25;7.05;;;5.85;;
29688;SDS011;16600;47.444;8.334;2023-06-10T03:16:52;6.55;;;5.95;;
29688;SDS011;16600;47.444;8.334;2023-06-10T03:19:19;10.85;;;6.13;;
29688;SDS011;16600;47.444;8.334;2023-06-10T03:21:49;8.25;;;6.20;;
29688;SDS011;16600;47.444;8.334;2023-06-10T03:24:20;6.28;;;5.68;;
29688;SDS011;16600;47.444;8.334;2023-06-10T03:26:47;10.40;;;6.57;;
29688;SDS011;16600;47.444;8.334;2023-06-10T03:29:16;20.33;;;6.03;;
29688;SDS011;16600;47.444;8.334;2023-06-10T03:31:42;6.50;;;5.90;;
29688;SDS011;16600;47.444;8.334;2023-06-10T03:34:09;7.32;;;6.32;;
29688;SDS011;16600;47.444;8.334;2023-06-10T03:39:04;6.97;;;5.78;;
29688;SDS011;16600;47.444;8.334;2023-06-10T03:41:30;7.25;;;6.22;;
29688;SDS011;16600;47.444;8.334;2023-06-10T03:43:58;9.57;;;6.45;;
29688;SDS011;16600;47.444;8.334;2023-06-10T03:46:24;6.93;;;6.32;;
29688;SDS011;16600;47.444;8.334;2023-06-10T03:48:50;9.07;;;6.40;;
29688;SDS011;16600;47.444;8.334;2023-06-10T03:51:17;6.97;;;6.38;;
29688;SDS011;16600;47.444;8.334;2023-06-10T03:56:09;7.07;;;6.35;;
29688;SDS011;16600;47.444;8.334;2023-06-10T03:58:35;7.20;;;6.50;;
29688;SDS011;16600;47.444;8.334;2023-06-10T04:03:02;7.37;;;6.40;;
29688;SDS011;16600;47.444;8.334;2023-06-10T04:05:34;7.95;;;5.70;;
29688;SDS011;16600;47.444;8.334;2023-06-10T04:08:00;10.20;;;6.45;;
29688;SDS011;16600;47.444;8.334;2023-06-10T04:10:27;11.73;;;6.78;;
29688;SDS011;16600;47.444;8.334;2023-06-10T04:12:57;7.55;;;6.22;;
29688;SDS011;16600;47.444;8.334;2023-06-10T04:15:26;10.32;;;6.97;;
29688;SDS011;16600;47.444;8.334;2023-06-10T04:17:52;7.18;;;6.40;;
29688;SDS011;16600;47.444;8.334;2023-06-10T04:20:22;8.15;;;7.35;;
29688;SDS011;16600;47.444;8.334;2023-06-10T04:22:48;8.65;;;7.22;;
29688;SDS011;16600;47.444;8.334;2023-06-10T04:25:15;7.78;;;6.65;;
29688;SDS011;16600;47.444;8.334;2023-06-10T04:27:43;8.52;;;6.78;;
29688;SDS011;16600;47.444;8.334;2023-06-10T04:30:09;7.60;;;5.55;;
29688;SDS011;16600;47.444;8.334;2023-06-10T04:32:37;10.75;;;5.63;;
29688;SDS011;16600;47.444;8.334;2023-06-10T04:35:12;8.43;;;5.85;;
29688;SDS011;16600;47.444;8.334;2023-06-10T04:37:39;9.38;;;6.35;;
29688;SDS011;16600;47.444;8.334;2023-06-10T04:40:05;8.63;;;7.05;;
29688;SDS011;16600;47.444;8.334;2023-06-10T04:42:32;10.48;;;5.82;;
29688;SDS011;16600;47.444;8.334;2023-06-10T04:44:58;14.45;;;5.85;;
29688;SDS011;16600;47.444;8.334;2023-06-10T04:47:25;6.72;;;5.60;;
29688;SDS011;16600;47.444;8.334;2023-06-10T04:49:52;6.43;;;5.40;;
29688;SDS011;16600;47.444;8.334;2023-06-10T04:52:18;5.40;;;4.85;;
29688;SDS011;16600;47.444;8.334;2023-06-10T04:54:48;6.90;;;5.00;;
29688;SDS011;16600;47.444;8.334;2023-06-10T04:57:17;7.03;;;4.78;;
29688;SDS011;16600;47.444;8.334;2023-06-10T04:59:46;7.85;;;5.15;;
29688;SDS011;16600;47.444;8.334;2023-06-10T05:02:12;5.57;;;4.93;;
29688;SDS011;16600;47.444;8.334;2023-06-10T05:04:38;6.38;;;4.43;;
29688;SDS011;16600;47.444;8.334;2023-06-10T05:07:05;5.70;;;4.57;;
29688;SDS011;16600;47.444;8.334;2023-06-10T05:09:33;5.78;;;4.70;;
29688;SDS011;16600;47.444;8.334;2023-06-10T05:11:59;6.22;;;3.92;;
29688;SDS011;16600;47.444;8.334;2023-06-10T05:14:25;5.57;;;4.45;;
29688;SDS011;16600;47.444;8.334;2023-06-10T05:16:53;7.10;;;4.82;;
29688;SDS011;16600;47.444;8.334;2023-06-10T05:19:19;4.95;;;4.55;;
29688;SDS011;16600;47.444;8.334;2023-06-10T05:21:45;6.55;;;5.15;;
29688;SDS011;16600;47.444;8.334;2023-06-10T05:24:12;6.55;;;4.93;;
29688;SDS011;16600;47.444;8.334;2023-06-10T05:26:38;4.68;;;4.28;;
29688;SDS011;16600;47.444;8.334;2023-06-10T05:29:05;8.75;;;4.78;;
29688;SDS011;16600;47.444;8.334;2023-06-10T05:31:33;10.60;;;4.90;;
29688;SDS011;16600;47.444;8.334;2023-06-10T05:33:59;6.07;;;4.75;;
29688;SDS011;16600;47.444;8.334;2023-06-10T05:36:26;5.20;;;4.35;;
29688;SDS011;16600;47.444;8.334;2023-06-10T05:38:53;5.95;;;4.63;;
29688;SDS011;16600;47.444;8.334;2023-06-10T05:41:19;4.93;;;4.38;;
29688;SDS011;16600;47.444;8.334;2023-06-10T05:43:46;8.68;;;5.30;;
29688;SDS011;16600;47.444;8.334;2023-06-10T05:46:12;6.63;;;4.70;;
29688;SDS011;16600;47.444;8.334;2023-06-10T05:48:38;8.55;;;4.50;;
29688;SDS011;16600;47.444;8.334;2023-06-10T05:51:05;4.47;;;4.07;;
29688;SDS011;16600;47.444;8.334;2023-06-10T05:53:31;5.30;;;4.80;;
29688;SDS011;16600;47.444;8.334;2023-06-10T05:55:57;5.32;;;4.82;;
29688;SDS011;16600;47.444;8.334;2023-06-10T05:58:24;10.00;;;4.80;;
29688;SDS011;16600;47.444;8.334;2023-06-10T06:00:50;7.18;;;5.00;;
29688;SDS011;16600;47.444;8.334;2023-06-10T06:03:17;10.13;;;4.90;;
29688;SDS011;16600;47.444;8.334;2023-06-10T06:05:43;5.05;;;4.40;;
29688;SDS011;16600;47.444;8.334;2023-06-10T06:08:12;9.55;;;4.35;;
29688;SDS011;16600;47.444;8.334;2023-06-10T06:10:39;6.05;;;4.70;;
29688;SDS011;16600;47.444;8.334;2023-06-10T06:13:05;5.25;;;4.45;;
29688;SDS011;16600;47.444;8.334;2023-06-10T06:15:31;4.95;;;4.45;;
29688;SDS011;16600;47.444;8.334;2023-06-10T06:17:57;6.07;;;4.75;;
29688;SDS011;16600;47.444;8.334;2023-06-10T06:20:23;6.20;;;4.47;;
29688;SDS011;16600;47.444;8.334;2023-06-10T06:22:49;6.13;;;4.50;;
29688;SDS011;16600;47.444;8.334;2023-06-10T06:25:15;6.47;;;4.15;;
29688;SDS011;16600;47.444;8.334;2023-06-10T06:27:41;4.63;;;4.22;;
29688;SDS011;16600;47.444;8.334;2023-06-10T06:30:07;5.55;;;4.72;;
29688;SDS011;16600;47.444;8.334;2023-06-10T06:32:34;7.72;;;4.53;;
29688;SDS011;16600;47.444;8.334;2023-06-10T06:35:00;5.15;;;4.63;;
29688;SDS011;16600;47.444;8.334;2023-06-10T06:37:26;4.50;;;4.07;;
29688;SDS011;16600;47.444;8.334;2023-06-10T06:40:06;4.82;;;4.35;;
29688;SDS011;16600;47.444;8.334;2023-06-10T06:42:32;5.28;;;4.60;;
29688;SDS011;16600;47.444;8.334;2023-06-10T06:45:10;6.68;;;4.95;;
29688;SDS011;16600;47.444;8.334;2023-06-10T06:47:37;5.13;;;4.63;;
29688;SDS011;16600;47.444;8.334;2023-06-10T06:50:03;5.82;;;5.03;;
29688;SDS011;16600;47.444;8.334;2023-06-10T06:52:29;6.07;;;4.70;;
29688;SDS011;16600;47.444;8.334;2023-06-10T06:54:55;5.03;;;4.35;;
29688;SDS011;16600;47.444;8.334;2023-06-10T06:57:22;6.00;;;5.28;;
29688;SDS011;16600;47.444;8.334;2023-06-10T06:59:48;4.78;;;4.38;;
29688;SDS011;16600;47.444;8.334;2023-06-10T07:02:15;4.97;;;4.45;;
29688;SDS011;16600;47.444;8.334;2023-06-10T07:04:41;5.25;;;4.65;;
29688;SDS011;16600;47.444;8.334;2023-06-10T07:07:07;6.93;;;4.97;;
29688;SDS011;16600;47.444;8.334;2023-06-10T07:09:37;5.43;;;4.93;;
29688;SDS011;16600;47.444;8.334;2023-06-10T07:12:03;6.63;;;5.22;;
29688;SDS011;16600;47.444;8.334;2023-06-10T07:14:31;6.85;;;4.28;;
29688;SDS011;16600;47.444;8.334;2023-06-10T07:16:57;6.10;;;5.50;;
29688;SDS011;16600;47.444;8.334;2023-06-10T07:19:23;7.38;;;6.28;;
29688;SDS011;16600;47.444;8.334;2023-06-10T07:21:49;10.80;;;5.50;;
29688;SDS011;16600;47.444;8.334;2023-06-10T07:24:16;5.57;;;4.85;;
29688;SDS011;16600;47.444;8.334;2023-06-10T07:26:42;7.20;;;5.05;;
29688;SDS011;16600;47.444;8.334;2023-06-10T07:29:11;5.95;;;5.35;;
29688;SDS011;16600;47.444;8.334;2023-06-10T07:31:38;6.78;;;5.00;;
29688;SDS011;16600;47.444;8.334;2023-06-10T07:34:04;14.52;;;5.50;;
29688;SDS011;16600;47.444;8.334;2023-06-10T07:36:30;8.77;;;5.50;;
29688;SDS011;16600;47.444;8.334;2023-06-10T07:38:56;7.15;;;5.47;;
29688;SDS011;16600;47.444;8.334;2023-06-10T07:41:25;7.85;;;5.43;;
29688;SDS011;16600;47.444;8.334;2023-06-10T07:43:52;5.10;;;4.60;;
29688;SDS011;16600;47.444;8.334;2023-06-10T07:46:20;5.10;;;4.68;;
29688;SDS011;16600;47.444;8.334;2023-06-10T07:48:47;16.05;;;5.53;;
29688;SDS011;16600;47.444;8.334;2023-06-10T07:51:16;5.78;;;5.03;;
29688;SDS011;16600;47.444;8.334;2023-06-10T07:53:42;5.95;;;5.45;;
29688;SDS011;16600;47.444;8.334;2023-06-10T07:56:08;5.00;;;4.50;;
29688;SDS011;16600;47.444;8.334;2023-06-10T07:58:37;5.68;;;5.20;;
29688;SDS011;16600;47.444;8.334;2023-06-10T08:01:03;7.28;;;5.35;;
29688;SDS011;16600;47.444;8.334;2023-06-10T08:03:32;7.13;;;5.75;;
29688;SDS011;16600;47.444;8.334;2023-06-10T08:06:02;6.20;;;5.55;;
29688;SDS011;16600;47.444;8.334;2023-06-10T08:08:28;5.93;;;5.18;;
29688;SDS011;16600;47.444;8.334;2023-06-10T08:10:54;7.80;;;6.10;;
29688;SDS011;16600;47.444;8.334;2023-06-10T08:13:26;6.28;;;5.78;;
29688;SDS011;16600;47.444;8.334;2023-06-10T08:15:52;7.25;;;5.20;;
29688;SDS011;16600;47.444;8.334;2023-06-10T08:18:21;6.35;;;5.70;;
29688;SDS011;16600;47.444;8.334;2023-06-10T08:20:48;5.75;;;5.25;;
29688;SDS011;16600;47.444;8.334;2023-06-10T08:23:14;5.57;;;5.07;;
29688;SDS011;16600;47.444;8.334;2023-06-10T08:25:40;16.13;;;5.57;;
29688;SDS011;16600;47.444;8.334;2023-06-10T08:28:09;8.07;;;6.55;;
29688;SDS011;16600;47.444;8.334;2023-06-10T08:30:41;5.75;;;5.35;;
29688;SDS011;16600;47.444;8.334;2023-06-10T08:33:09;7.00;;;6.30;;
29688;SDS011;16600;47.444;8.334;2023-06-10T08:35:35;8.70;;;6.28;;
29688;SDS011;16600;47.444;8.334;2023-06-10T08:38:04;6.07;;;5.22;;
29688;SDS011;16600;47.444;8.334;2023-06-10T08:40:32;8.20;;;6.15;;
29688;SDS011;16600;47.444;8.334;2023-06-10T08:43:05;10.05;;;6.22;;
29688;SDS011;16600;47.444;8.334;2023-06-10T08:45:32;9.07;;;6.60;;
29688;SDS011;16600;47.444;8.334;2023-06-10T08:48:02;10.02;;;6.65;;
29688;SDS011;16600;47.444;8.334;2023-06-10T08:50:35;9.15;;;5.97;;
29688;SDS011;16600;47.444;8.334;2023-06-10T08:53:05;7.68;;;6.28;;
29688;SDS011;16600;47.444;8.334;2023-06-10T08:55:38;6.22;;;5.63;;
29688;SDS011;16600;47.444;8.334;2023-06-10T08:58:04;6.22;;;5.70;;
29688;SDS011;16600;47.444;8.334;2023-06-10T09:00:33;9.13;;;6.10;;
29688;SDS011;16600;47.444;8.334;2023-06-10T09:03:04;7.05;;;5.28;;
29688;SDS011;16600;47.444;8.334;2023-06-10T09:05:33;7.40;;;5.47;;
29688;SDS011;16600;47.444;8.334;2023-06-10T09:07:59;5.50;;;4.95;;
29688;SDS011;16600;47.444;8.334;2023-06-10T09:10:26;6.03;;;5.43;;
29688;SDS011;16600;47.444;8.334;2023-06-10T09:12:52;6.72;;;5.15;;
29688;SDS011;16600;47.444;8.334;2023-06-10T09:15:18;6.82;;;5.10;;
29688;SDS011;16600;47.444;8.334;2023-06-10T09:17:44;7.03;;;5.63;;
29688;SDS011;16600;47.444;8.334;2023-06-10T09:20:11;6.65;;;5.93;;
29688;SDS011;16600;47.444;8.334;2023-06-10T09:22:37;6.97;;;4.97;;
29688;SDS011;16600;47.444;8.334;2023-06-10T09:25:07;8.68;;;5.00;;
29688;SDS011;16600;47.444;8.334;2023-06-10T09:32:51;11.30;;;5.38;;
29688;SDS011;16600;47.444;8.334;2023-06-10T09:35:17;5.82;;;4.65;;
29688;SDS011;16600;47.444;8.334;2023-06-10T09:37:43;4.97;;;4.47;;
29688;SDS011;16600;47.444;8.334;2023-06-10T09:40:13;6.45;;;5.43;;
29688;SDS011;16600;47.444;8.334;2023-06-10T09:42:41;10.27;;;5.32;;
29688;SDS011;16600;47.444;8.334;2023-06-10T09:45:08;6.53;;;5.90;;
29688;SDS011;16600;47.444;8.334;2023-06-10T09:47:34;6.78;;;6.03;;
29688;SDS011;16600;47.444;8.334;2023-06-10T09:50:01;8.02;;;5.47;;
29688;SDS011;16600;47.444;8.334;2023-06-10T09:52:31;7.47;;;5.43;;
29688;SDS011;16600;47.444;8.334;2023-06-10T09:55:01;8.32;;;5.28;;
29688;SDS011;16600;47.444;8.334;2023-06-10T09:57:33;5.00;;;4.47;;
29688;SDS011;16600;47.444;8.334;2023-06-10T10:00:02;8.63;;;6.50;;
29688;SDS011;16600;47.444;8.334;2023-06-10T10:03:05;5.33;;;4.83;;
29688;SDS011;16600;47.444;8.334;2023-06-10T10:05:32;12.88;;;5.55;;
29688;SDS011;16600;47.444;8.334;2023-06-10T10:07:58;7.47;;;6.63;;
29688;SDS011;16600;47.444;8.334;2023-06-10T10:10:25;7.38;;;6.60;;
29688;SDS011;16600;47.444;8.334;2023-06-10T10:12:53;10.70;;;6.60;;
29688;SDS011;16600;47.444;8.334;2023-06-10T10:15:22;7.72;;;6.78;;
29688;SDS011;16600;47.444;8.334;2023-06-10T10:17:52;6.20;;;5.60;;
29688;SDS011;16600;47.444;8.334;2023-06-10T10:20:20;6.30;;;5.80;;
29688;SDS011;16600;47.444;8.334;2023-06-10T10:22:46;10.55;;;5.70;;
29688;SDS011;16600;47.444;8.334;2023-06-10T10:25:16;4.63;;;2.63;;
29688;SDS011;16600;47.444;8.334;2023-06-10T10:27:51;5.00;;;3.65;;
29688;SDS011;16600;47.444;8.334;2023-06-10T10:30:17;4.88;;;4.35;;
29688;SDS011;16600;47.444;8.334;2023-06-10T10:32:55;6.78;;;5.63;;
29688;SDS011;16600;47.444;8.334;2023-06-10T10:35:32;6.93;;;6.22;;
29688;SDS011;16600;47.444;8.334;2023-06-10T10:37:59;10.90;;;7.22;;
29688;SDS011;16600;47.444;8.334;2023-06-10T10:40:31;9.80;;;6.53;;
29688;SDS011;16600;47.444;8.334;2023-06-10T10:43:01;6.60;;;5.63;;
29688;SDS011;16600;47.444;8.334;2023-06-10T10:45:34;9.25;;;6.18;;
29688;SDS011;16600;47.444;8.334;2023-06-10T10:48:04;7.40;;;5.68;;
29688;SDS011;16600;47.444;8.334;2023-06-10T10:50:31;6.78;;;6.07;;
29688;SDS011;16600;47.444;8.334;2023-06-10T10:53:00;7.80;;;5.63;;
29688;SDS011;16600;47.444;8.334;2023-06-10T10:55:27;6.97;;;6.28;;
29688;SDS011;16600;47.444;8.334;2023-06-10T10:58:26;10.07;;;5.90;;
29688;SDS011;16600;47.444;8.334;2023-06-10T11:00:44;7.00;;;4.85;;
29688;SDS011;16600;47.444;8.334;2023-06-10T11:03:13;12.10;;;6.05;;
29688;SDS011;16600;47.444;8.334;2023-06-10T11:05:41;7.70;;;6.05;;
29688;SDS011;16600;47.444;8.334;2023-06-10T11:08:09;6.05;;;5.50;;
29688;SDS011;16600;47.444;8.334;2023-06-10T11:10:39;7.78;;;6.00;;
29688;SDS011;16600;47.444;8.334;2023-06-10T11:13:14;9.75;;;5.78;;
29688;SDS011;16600;47.444;8.334;2023-06-10T11:15:44;9.40;;;6.10;;
29688;SDS011;16600;47.444;8.334;2023-06-10T11:18:10;8.43;;;5.78;;
29688;SDS011;16600;47.444;8.334;2023-06-10T11:26:11;6.63;;;6.00;;
29688;SDS011;16600;47.444;8.334;2023-06-10T11:28:37;6.35;;;5.75;;
29688;SDS011;16600;47.444;8.334;2023-06-10T11:31:03;6.30;;;5.57;;
29688;SDS011;16600;47.444;8.334;2023-06-10T11:33:29;6.50;;;5.75;;
29688;SDS011;16600;47.444;8.334;2023-06-10T11:35:55;7.07;;;5.75;;
29688;SDS011;16600;47.444;8.334;2023-06-10T11:38:21;6.55;;;5.88;;
29688;SDS011;16600;47.444;8.334;2023-06-10T11:40:50;9.48;;;5.85;;
29688;SDS011;16600;47.444;8.334;2023-06-10T11:43:16;10.70;;;9.05;;
29688;SDS011;16600;47.444;8.334;2023-06-10T11:45:42;6.65;;;5.50;;
29688;SDS011;16600;47.444;8.334;2023-06-10T11:48:09;8.20;;;5.78;;
29688;SDS011;16600;47.444;8.334;2023-06-10T11:50:34;10.27;;;5.57;;
29688;SDS011;16600;47.444;8.334;2023-06-10T11:53:00;8.07;;;5.57;;
29688;SDS011;16600;47.444;8.334;2023-06-10T11:55:39;13.20;;;6.00;;
29688;SDS011;16600;47.444;8.334;2023-06-10T11:58:05;4.72;;;4.25;;
29688;SDS011;16600;47.444;8.334;2023-06-10T12:00:30;5.40;;;4.90;;
29688;SDS011;16600;47.444;8.334;2023-06-10T12:02:59;8.23;;;5.22;;
29688;SDS011;16600;47.444;8.334;2023-06-10T12:05:25;7.25;;;5.32;;
29688;SDS011;16600;47.444;8.334;2023-06-10T12:08:05;6.13;;;5.30;;
29688;SDS011;16600;47.444;8.334;2023-06-10T12:10:32;5.50;;;5.07;;
29688;SDS011;16600;47.444;8.334;2023-06-10T12:12:57;6.97;;;5.63;;
29688;SDS011;16600;47.444;8.334;2023-06-10T12:15:23;10.65;;;5.45;;
29688;SDS011;16600;47.444;8.334;2023-06-10T12:17:50;7.47;;;5.60;;
29688;SDS011;16600;47.444;8.334;2023-06-10T12:20:35;7.75;;;5.72;;
29688;SDS011;16600;47.444;8.334;2023-06-10T12:23:08;5.55;;;4.93;;
29688;SDS011;16600;47.444;8.334;2023-06-10T12:25:34;10.52;;;5.32;;
29688;SDS011;16600;47.444;8.334;2023-06-10T12:27:59;5.15;;;4.63;;
29688;SDS011;16600;47.444;8.334;2023-06-10T12:30:25;5.75;;;4.32;;
29688;SDS011;16600;47.444;8.334;2023-06-10T12:32:54;7.60;;;4.80;;
29688;SDS011;16600;47.444;8.334;2023-06-10T12:35:24;5.00;;;4.60;;
29688;SDS011;16600;47.444;8.334;2023-06-10T12:37:57;7.95;;;5.05;;
29688;SDS011;16600;47.444;8.334;2023-06-10T12:40:32;6.63;;;4.75;;
29688;SDS011;16600;47.444;8.334;2023-06-10T12:42:58;6.20;;;5.25;;
29688;SDS011;16600;47.444;8.334;2023-06-10T12:45:28;5.53;;;5.03;;
29688;SDS011;16600;47.444;8.334;2023-06-10T12:48:04;5.30;;;4.78;;
29688;SDS011;16600;47.444;8.334;2023-06-10T12:50:31;5.68;;;5.18;;
29688;SDS011;16600;47.444;8.334;2023-06-10T12:52:56;8.45;;;4.97;;
29688;SDS011;16600;47.444;8.334;2023-06-10T12:55:22;4.93;;;4.53;;
29688;SDS011;16600;47.444;8.334;2023-06-10T12:57:48;7.53;;;5.20;;
29688;SDS011;16600;47.444;8.334;2023-06-10T13:00:14;10.88;;;5.40;;
29688;SDS011;16600;47.444;8.334;2023-06-10T13:02:40;6.18;;;4.95;;
29688;SDS011;16600;47.444;8.334;2023-06-10T13:05:05;7.50;;;5.28;;
29688;SDS011;16600;47.444;8.334;2023-06-10T13:07:31;5.57;;;4.68;;
29688;SDS011;16600;47.444;8.334;2023-06-10T13:09:56;5.28;;;4.70;;
29688;SDS011;16600;47.444;8.334;2023-06-10T13:12:22;6.05;;;5.50;;
29688;SDS011;16600;47.444;8.334;2023-06-10T13:14:48;7.32;;;5.03;;
29688;SDS011;16600;47.444;8.334;2023-06-10T13:17:14;4.50;;;4.10;;
29688;SDS011;16600;47.444;8.334;2023-06-10T13:19:39;9.43;;;5.10;;
29688;SDS011;16600;47.444;8.334;2023-06-10T13:22:05;5.53;;;4.85;;
29688;SDS011;16600;47.444;8.334;2023-06-10T13:24:30;5.80;;;4.65;;
29688;SDS011;16600;47.444;8.334;2023-06-10T13:26:56;4.95;;;4.10;;
29688;SDS011;16600;47.444;8.334;2023-06-10T13:29:22;4.65;;;4.25;;
29688;SDS011;16600;47.444;8.334;2023-06-10T13:31:51;5.57;;;5.03;;
29688;SDS011;16600;47.444;8.334;2023-06-10T13:34:17;8.75;;;4.82;;
29688;SDS011;16600;47.444;8.334;2023-06-10T13:36:42;5.82;;;5.30;;
29688;SDS011;16600;47.444;8.334;2023-06-10T13:39:08;5.07;;;4.68;;
29688;SDS011;16600;47.444;8.334;2023-06-10T13:41:33;5.63;;;4.57;;
29688;SDS011;16600;47.444;8.334;2023-06-10T13:43:59;5.65;;;5.13;;
29688;SDS011;16600;47.444;8.334;2023-06-10T13:46:24;8.40;;;5.03;;
29688;SDS011;16600;47.444;8.334;2023-06-10T13:48:51;4.88;;;4.30;;
29688;SDS011;16600;47.444;8.334;2023-06-10T13:51:17;5.03;;;4.32;;
29688;SDS011;16600;47.444;8.334;2023-06-10T13:53:42;10.38;;;4.75;;
29688;SDS011;16600;47.444;8.334;2023-06-10T13:56:08;5.60;;;4.70;;
29688;SDS011;16600;47.444;8.334;2023-06-10T13:58:33;4.45;;;4.07;;
29688;SDS011;16600;47.444;8.334;2023-06-10T14:01:04;4.60;;;3.90;;
29688;SDS011;16600;47.444;8.334;2023-06-10T14:03:30;4.70;;;4.10;;
29688;SDS011;16600;47.444;8.334;2023-06-10T14:05:55;4.60;;;4.20;;
29688;SDS011;16600;47.444;8.334;2023-06-10T14:08:21;6.00;;;3.83;;
29688;SDS011;16600;47.444;8.334;2023-06-10T14:10:47;5.88;;;3.92;;
29688;SDS011;16600;47.444;8.334;2023-06-10T14:13:13;5.75;;;4.82;;
29688;SDS011;16600;47.444;8.334;2023-06-10T14:15:38;5.07;;;4.35;;
29688;SDS011;16600;47.444;8.334;2023-06-10T14:18:04;5.75;;;4.47;;
29688;SDS011;16600;47.444;8.334;2023-06-10T14:20:30;5.78;;;4.38;;
29688;SDS011;16600;47.444;8.334;2023-06-10T14:22:57;6.82;;;4.50;;
29688;SDS011;16600;47.444;8.334;2023-06-10T14:25:22;5.53;;;4.22;;
29688;SDS011;16600;47.444;8.334;2023-06-10T14:27:48;3.97;;;3.67;;
29688;SDS011;16600;47.444;8.334;2023-06-10T14:30:14;4.50;;;4.05;;
29688;SDS011;16600;47.444;8.334;2023-06-10T14:32:42;5.13;;;4.72;;
29688;SDS011;16600;47.444;8.334;2023-06-10T14:35:08;7.05;;;4.32;;
29688;SDS011;16600;47.444;8.334;2023-06-10T14:37:34;5.78;;;4.93;;
29688;SDS011;16600;47.444;8.334;2023-06-10T14:39:59;4.47;;;4.07;;
29688;SDS011;16600;47.444;8.334;2023-06-10T14:42:25;6.50;;;4.53;;
29688;SDS011;16600;47.444;8.334;2023-06-10T14:44:51;5.05;;;4.47;;
29688;SDS011;16600;47.444;8.334;2023-06-10T14:47:16;5.65;;;4.38;;
29688;SDS011;16600;47.444;8.334;2023-06-10T14:49:42;5.70;;;5.03;;
29688;SDS011;16600;47.444;8.334;2023-06-10T14:52:09;5.03;;;4.63;;
29688;SDS011;16600;47.444;8.334;2023-06-10T14:54:34;5.15;;;4.68;;
29688;SDS011;16600;47.444;8.334;2023-06-10T14:57:00;6.18;;;4.63;;
29688;SDS011;16600;47.444;8.334;2023-06-10T14:59:25;6.68;;;5.18;;
29688;SDS011;16600;47.444;8.334;2023-06-10T15:01:51;5.75;;;4.53;;
29688;SDS011;16600;47.444;8.334;2023-06-10T15:04:17;5.65;;;5.13;;
29688;SDS011;16600;47.444;8.334;2023-06-10T15:06:42;7.97;;;5.00;;
29688;SDS011;16600;47.444;8.334;2023-06-10T15:09:08;7.65;;;5.45;;
29688;SDS011;16600;47.444;8.334;2023-06-10T15:11:34;6.45;;;4.57;;